Time;durP1;ratioP1;P1;durP2;ratioP2;P2;SDS_P1;SDS_P2;PMS_P1;PMS_P2;Temp;Humidity;BMP_temperature;BMP_pressure;BME280_temperature;BME280_humidity;BME280_pressure;Samples;Min_cycle;Max_cycle;Signal;HPM_P1;HPM_P2
2024/03/18 00:00:46;;;;;;;3.20;1.80;;;;;;;;;;5105758;28;20118;-65
2024/03/18 00:03:13;;;;;;;2.00;1.90;;;;;;;;;;5099318;28;20550;-65
2024/03/18 00:05:39;;;;;;;2.40;2.10;;;;;;;;;;5096432;27;20042;-65
2024/03/18 00:08:05;;;;;;;2.28;2.00;;;;;;;;;;5099949;28;20031;-67
2024/03/18 00:10:32;;;;;;;16.50;2.58;;;;;;;;;;5100002;27;20745;-65
2024/03/18 00:12:58;;;;;;;12.30;2.38;;;;;;;;;;5103150;28;20106;-65
2024/03/18 00:15:24;;;;;;;7.72;2.05;;;;;;;;;;5093462;28;20099;-65
2024/03/18 00:17:50;;;;;;;5.07;1.77;;;;;;;;;;5111146;28;20776;-65
2024/03/18 00:20:16;;;;;;;1.75;1.65;;;;;;;;;;5104993;27;20031;-65
2024/03/18 00:22:43;;;;;;;6.80;2.92;;;;;;;;;;5100485;28;20031;-65
2024/03/18 00:25:13;;;;;;;5.72;3.00;;;;;;;;;;5087596;28;20031;-65
2024/03/18 00:27:40;;;;;;;7.25;2.67;;;;;;;;;;5098301;27;20032;-68
2024/03/18 00:30:14;;;;;;;8.38;2.40;;;;;;;;;;5098087;28;20045;-65
2024/03/18 00:32:41;;;;;;;10.03;3.17;;;;;;;;;;5104765;28;20094;-65
2024/03/18 00:35:13;;;;;;;3.00;2.13;;;;;;;;;;5088920;28;20027;-65
2024/03/18 00:37:40;;;;;;;9.35;2.72;;;;;;;;;;5082875;28;20062;-65
2024/03/18 00:40:08;;;;;;;12.23;2.28;;;;;;;;;;5108689;28;20031;-66
2024/03/18 00:42:35;;;;;;;5.78;2.72;;;;;;;;;;5105416;28;20515;-65
2024/03/18 00:45:01;;;;;;;16.02;3.25;;;;;;;;;;5085938;28;20989;-65
2024/03/18 00:47:28;;;;;;;7.10;2.15;;;;;;;;;;5084730;28;20038;-65
2024/03/18 00:49:54;;;;;;;2.60;2.13;;;;;;;;;;5080957;28;20028;-65
2024/03/18 00:52:27;;;;;;;8.52;2.30;;;;;;;;;;5096891;28;20016;-65
2024/03/18 00:54:53;;;;;;;11.52;2.38;;;;;;;;;;5080761;28;20058;-65
2024/03/18 00:57:20;;;;;;;8.85;2.08;;;;;;;;;;5103763;28;20031;-65
2024/03/18 00:59:46;;;;;;;6.53;2.33;;;;;;;;;;5103958;28;20084;-65
2024/03/18 01:02:12;;;;;;;7.82;1.90;;;;;;;;;;5103476;28;20028;-65
2024/03/18 01:04:38;;;;;;;9.20;2.42;;;;;;;;;;5097152;28;20028;-64
2024/03/18 01:07:06;;;;;;;8.85;2.72;;;;;;;;;;5097610;28;20056;-65
2024/03/18 01:09:32;;;;;;;7.35;2.13;;;;;;;;;;5082929;28;20031;-65
2024/03/18 01:11:58;;;;;;;13.85;3.20;;;;;;;;;;5098229;28;20028;-66
2024/03/18 01:14:27;;;;;;;24.85;3.00;;;;;;;;;;5091677;28;20030;-65
2024/03/18 01:16:54;;;;;;;9.07;2.40;;;;;;;;;;5098009;28;20016;-65
2024/03/18 01:19:20;;;;;;;9.13;2.55;;;;;;;;;;5080086;28;20024;-65
2024/03/18 01:21:46;;;;;;;5.90;2.97;;;;;;;;;;5079467;28;20024;-65
2024/03/18 01:24:12;;;;;;;5.07;2.30;;;;;;;;;;5095171;28;20027;-65
2024/03/18 01:26:38;;;;;;;18.63;2.40;;;;;;;;;;5099807;28;20035;-65
2024/03/18 01:29:05;;;;;;;12.75;2.72;;;;;;;;;;5100403;28;20115;-65
2024/03/18 01:31:31;;;;;;;7.28;2.53;;;;;;;;;;5095173;28;20015;-65
2024/03/18 01:33:57;;;;;;;4.68;2.42;;;;;;;;;;5102469;27;20026;-65
2024/03/18 01:36:23;;;;;;;7.78;2.47;;;;;;;;;;5097373;28;20028;-65
2024/03/18 01:38:49;;;;;;;5.25;2.45;;;;;;;;;;5080411;28;20047;-65
2024/03/18 01:41:16;;;;;;;2.35;2.15;;;;;;;;;;5095591;27;20032;-65
2024/03/18 01:43:43;;;;;;;8.80;2.40;;;;;;;;;;5102823;28;20027;-65
2024/03/18 01:46:18;;;;;;;8.25;2.55;;;;;;;;;;5087456;28;20101;-70
2024/03/18 01:48:45;;;;;;;8.32;2.42;;;;;;;;;;5097873;28;20024;-65
2024/03/18 01:51:11;;;;;;;14.75;3.13;;;;;;;;;;5096769;28;20474;-66
2024/03/18 01:53:38;;;;;;;3.80;2.03;;;;;;;;;;5091546;27;20283;-65
2024/03/18 01:56:09;;;;;;;11.45;2.42;;;;;;;;;;5099501;28;20111;-65
2024/03/18 01:58:36;;;;;;;12.32;2.40;;;;;;;;;;5083945;28;20036;-65
2024/03/18 02:01:02;;;;;;;10.23;2.60;;;;;;;;;;5088975;28;20118;-65
2024/03/18 02:03:29;;;;;;;10.07;2.30;;;;;;;;;;5101423;28;20019;-65
2024/03/18 02:05:55;;;;;;;4.15;2.30;;;;;;;;;;5104068;27;20036;-65
2024/03/18 02:08:23;;;;;;;8.25;2.40;;;;;;;;;;5083246;28;20434;-65
2024/03/18 02:10:50;;;;;;;13.38;2.55;;;;;;;;;;5090847;28;20027;-65
2024/03/18 02:13:16;;;;;;;13.18;3.05;;;;;;;;;;5096690;28;20508;-65
2024/03/18 02:15:42;;;;;;;10.05;2.20;;;;;;;;;;5087207;28;20020;-65
2024/03/18 02:18:08;;;;;;;1.30;1.30;;;;;;;;;;5097722;28;20075;-65
2024/03/18 02:20:35;;;;;;;4.05;1.90;;;;;;;;;;5099782;28;20152;-65
2024/03/18 02:23:01;;;;;;;4.90;2.28;;;;;;;;;;5094675;28;20477;-65
2024/03/18 02:25:27;;;;;;;5.53;1.95;;;;;;;;;;5095861;28;20114;-66
2024/03/18 02:27:54;;;;;;;5.03;2.03;;;;;;;;;;5100575;28;20358;-67
2024/03/18 02:30:20;;;;;;;3.38;2.20;;;;;;;;;;5103157;28;20567;-65
2024/03/18 02:32:49;;;;;;;6.00;1.75;;;;;;;;;;5077391;28;20071;-65
2024/03/18 02:35:18;;;;;;;2.63;1.75;;;;;;;;;;5080580;28;20023;-65
2024/03/18 02:37:45;;;;;;;5.70;2.08;;;;;;;;;;5092607;28;20043;-65
2024/03/18 02:40:12;;;;;;;7.78;2.30;;;;;;;;;;5099738;28;20481;-66
2024/03/18 02:42:41;;;;;;;2.38;2.17;;;;;;;;;;5091279;28;20302;-65
2024/03/18 02:45:11;;;;;;;2.35;1.75;;;;;;;;;;5098798;28;20440;-64
2024/03/18 02:47:37;;;;;;;3.65;1.90;;;;;;;;;;5096961;28;20476;-65
2024/03/18 02:50:04;;;;;;;4.28;1.63;;;;;;;;;;5080307;28;20557;-64
2024/03/18 02:52:30;;;;;;;4.93;2.85;;;;;;;;;;5094145;28;20042;-65
2024/03/18 02:54:57;;;;;;;6.13;2.25;;;;;;;;;;5085109;28;20020;-64
2024/03/18 02:57:23;;;;;;;8.00;2.05;;;;;;;;;;5080057;28;20028;-65
2024/03/18 02:59:49;;;;;;;4.82;1.88;;;;;;;;;;5097492;28;20522;-65
2024/03/18 03:02:15;;;;;;;5.90;2.20;;;;;;;;;;5092711;28;20437;-65
2024/03/18 03:04:42;;;;;;;3.42;1.55;;;;;;;;;;5090725;28;20024;-65
2024/03/18 03:07:10;;;;;;;1.85;1.75;;;;;;;;;;5083043;28;20032;-66
2024/03/18 03:09:36;;;;;;;4.93;1.92;;;;;;;;;;5094888;28;20038;-65
2024/03/18 03:12:02;;;;;;;12.30;1.92;;;;;;;;;;5104405;28;20020;-65
2024/03/18 03:14:29;;;;;;;11.52;1.98;;;;;;;;;;5099086;28;20287;-65
2024/03/18 03:16:56;;;;;;;4.72;2.92;;;;;;;;;;5099027;28;20034;-65
2024/03/18 03:19:22;;;;;;;6.50;2.13;;;;;;;;;;5096925;27;20472;-64
2024/03/18 03:21:48;;;;;;;5.47;2.00;;;;;;;;;;5103588;28;20030;-65
2024/03/18 03:24:15;;;;;;;7.72;2.10;;;;;;;;;;5101765;27;20472;-65
2024/03/18 03:26:42;;;;;;;3.55;1.80;;;;;;;;;;5104952;27;20020;-65
2024/03/18 03:29:08;;;;;;;1.60;1.50;;;;;;;;;;5100919;28;20027;-65
2024/03/18 03:31:35;;;;;;;3.65;1.60;;;;;;;;;;5096636;28;20067;-65
2024/03/18 03:34:01;;;;;;;2.33;1.42;;;;;;;;;;5097937;28;20115;-65
2024/03/18 03:36:27;;;;;;;1.95;1.63;;;;;;;;;;5100087;28;20024;-65
2024/03/18 03:38:54;;;;;;;4.60;1.83;;;;;;;;;;5105175;28;20032;-66
2024/03/18 03:41:20;;;;;;;4.50;1.65;;;;;;;;;;5073110;27;20054;-65
2024/03/18 03:43:48;;;;;;;2.83;1.63;;;;;;;;;;5092357;28;20439;-64
2024/03/18 03:46:14;;;;;;;2.60;1.55;;;;;;;;;;5100499;28;20041;-69
2024/03/18 03:48:40;;;;;;;5.47;1.70;;;;;;;;;;5099403;28;20043;-64
2024/03/18 03:51:06;;;;;;;3.72;1.63;;;;;;;;;;5095783;28;20496;-65
2024/03/18 03:53:33;;;;;;;1.77;1.67;;;;;;;;;;5073961;28;21045;-65
2024/03/18 03:56:01;;;;;;;6.63;1.83;;;;;;;;;;5101719;28;20071;-65
2024/03/18 03:58:28;;;;;;;2.33;1.58;;;;;;;;;;5108337;28;20031;-65
2024/03/18 04:00:54;;;;;;;2.92;1.77;;;;;;;;;;5078315;28;20027;-65
2024/03/18 04:03:22;;;;;;;2.10;2.00;;;;;;;;;;5077209;28;20024;-65
2024/03/18 04:05:48;;;;;;;1.95;1.70;;;;;;;;;;5089318;28;20389;-65
2024/03/18 04:08:15;;;;;;;6.43;1.65;;;;;;;;;;5095258;28;20027;-65
2024/03/18 04:10:42;;;;;;;9.13;2.25;;;;;;;;;;5082868;28;20024;-65
2024/03/18 04:13:09;;;;;;;1.70;1.60;;;;;;;;;;5092767;28;20023;-65
2024/03/18 04:15:36;;;;;;;4.85;1.20;;;;;;;;;;5083091;28;20016;-65
2024/03/18 04:18:03;;;;;;;1.83;1.33;;;;;;;;;;5085029;28;20047;-65
2024/03/18 04:20:30;;;;;;;5.13;1.67;;;;;;;;;;5084984;28;20042;-65
2024/03/18 04:22:57;;;;;;;1.83;1.73;;;;;;;;;;5098684;28;20472;-64
2024/03/18 04:25:23;;;;;;;1.27;1.27;;;;;;;;;;5099856;28;20027;-65
2024/03/18 04:27:49;;;;;;;1.50;1.40;;;;;;;;;;5096796;27;20658;-65
2024/03/18 04:30:17;;;;;;;1.77;1.67;;;;;;;;;;5093203;28;20538;-65
2024/03/18 04:32:43;;;;;;;1.60;1.50;;;;;;;;;;5097628;28;20016;-65
2024/03/18 04:35:10;;;;;;;3.70;1.50;;;;;;;;;;5083576;28;20024;-65
2024/03/18 04:37:45;;;;;;;3.20;1.42;;;;;;;;;;5087176;28;20122;-65
2024/03/18 04:40:12;;;;;;;1.70;1.30;;;;;;;;;;5101782;27;20020;-64
2024/03/18 04:42:41;;;;;;;1.50;1.40;;;;;;;;;;5092971;28;20023;-64
2024/03/18 04:45:07;;;;;;;1.60;1.60;;;;;;;;;;5091456;28;20428;-65
2024/03/18 04:47:38;;;;;;;1.27;1.27;;;;;;;;;;5098912;28;20026;-65
2024/03/18 04:50:05;;;;;;;7.13;1.60;;;;;;;;;;5103936;28;20540;-65
2024/03/18 04:52:32;;;;;;;4.50;1.50;;;;;;;;;;5097154;28;20024;-65
2024/03/18 04:54:58;;;;;;;4.18;1.75;;;;;;;;;;5091683;28;20019;-65
2024/03/18 04:57:24;;;;;;;2.90;1.92;;;;;;;;;;5087076;28;20023;-65
2024/03/18 04:59:51;;;;;;;1.20;1.20;;;;;;;;;;5078130;28;20024;-65
2024/03/18 05:02:17;;;;;;;1.70;1.60;;;;;;;;;;5087861;28;20024;-65
2024/03/18 05:04:44;;;;;;;1.33;1.33;;;;;;;;;;5084879;28;20024;-65
2024/03/18 05:07:10;;;;;;;2.85;1.77;;;;;;;;;;5085254;28;20031;-65
2024/03/18 05:09:36;;;;;;;3.25;1.38;;;;;;;;;;5099328;28;20027;-65
2024/03/18 05:12:03;;;;;;;5.57;1.60;;;;;;;;;;5092808;28;20030;-65
2024/03/18 05:14:30;;;;;;;4.13;1.77;;;;;;;;;;5081043;28;20491;-65
2024/03/18 05:16:56;;;;;;;3.67;2.08;;;;;;;;;;5083691;28;20020;-65
2024/03/18 05:19:23;;;;;;;1.80;1.35;;;;;;;;;;5090954;28;20468;-64
2024/03/18 05:21:49;;;;;;;2.03;1.83;;;;;;;;;;5079019;28;20457;-65
2024/03/18 05:24:16;;;;;;;2.88;1.83;;;;;;;;;;5091863;28;20582;-65
2024/03/18 05:26:42;;;;;;;1.90;1.52;;;;;;;;;;5098886;28;20023;-65
2024/03/18 05:29:08;;;;;;;5.20;1.40;;;;;;;;;;5097133;28;20607;-65
2024/03/18 05:31:34;;;;;;;1.52;1.42;;;;;;;;;;5091609;28;20679;-65
2024/03/18 05:34:04;;;;;;;1.95;1.77;;;;;;;;;;5077164;28;20107;-64
2024/03/18 05:36:30;;;;;;;6.18;1.73;;;;;;;;;;5103435;28;20024;-64
2024/03/18 05:38:57;;;;;;;1.50;1.40;;;;;;;;;;5090743;28;20127;-64
2024/03/18 05:41:23;;;;;;;4.35;1.48;;;;;;;;;;5076947;28;20032;-65
2024/03/18 05:43:49;;;;;;;1.42;1.33;;;;;;;;;;5096285;28;20039;-65
2024/03/18 05:46:17;;;;;;;2.55;1.67;;;;;;;;;;5100175;28;20024;-65
2024/03/18 05:48:44;;;;;;;10.40;1.95;;;;;;;;;;5101566;28;20027;-65
2024/03/18 05:51:10;;;;;;;1.80;1.70;;;;;;;;;;5097625;28;20110;-65
2024/03/18 05:53:36;;;;;;;1.45;1.33;;;;;;;;;;5100630;27;20057;-65
2024/03/18 05:56:03;;;;;;;6.53;1.63;;;;;;;;;;5076835;28;20020;-65
2024/03/18 05:58:29;;;;;;;9.98;1.80;;;;;;;;;;5083494;28;20031;-65
2024/03/18 06:00:55;;;;;;;6.68;1.92;;;;;;;;;;5098528;28;20027;-65
2024/03/18 06:03:22;;;;;;;6.75;1.60;;;;;;;;;;5098780;28;20024;-65
2024/03/18 06:05:48;;;;;;;1.70;1.60;;;;;;;;;;5091862;28;20427;-65
2024/03/18 06:08:14;;;;;;;2.85;1.65;;;;;;;;;;5098918;28;20059;-65
2024/03/18 06:10:40;;;;;;;1.50;1.40;;;;;;;;;;5093112;28;20515;-65
2024/03/18 06:13:06;;;;;;;3.60;1.45;;;;;;;;;;5097363;28;20031;-65
2024/03/18 06:15:33;;;;;;;3.40;1.73;;;;;;;;;;5093539;28;20028;-65
2024/03/18 06:17:59;;;;;;;4.05;1.70;;;;;;;;;;5094592;28;20088;-65
2024/03/18 06:20:25;;;;;;;2.03;1.58;;;;;;;;;;5081002;28;20298;-65
2024/03/18 06:22:53;;;;;;;3.78;1.67;;;;;;;;;;5092946;28;20046;-65
2024/03/18 06:26:20;;;;;;;2.83;1.88;;;;;;;;;;5087837;28;20024;-65
2024/03/18 06:28:15;;;;;;;1.40;1.40;;;;;;;;;;5080119;28;20561;-68
2024/03/18 06:30:42;;;;;;;1.67;1.48;;;;;;;;;;5080481;28;20024;-65
2024/03/18 06:33:08;;;;;;;2.05;1.85;;;;;;;;;;5095389;28;20559;-65
2024/03/18 06:35:34;;;;;;;4.18;2.22;;;;;;;;;;5080537;28;20088;-67
2024/03/18 06:38:01;;;;;;;1.50;1.40;;;;;;;;;;5091367;28;20179;-65
2024/03/18 06:40:27;;;;;;;7.32;2.35;;;;;;;;;;5080784;28;20696;-65
2024/03/18 06:42:53;;;;;;;4.43;1.73;;;;;;;;;;5101598;28;20102;-65
2024/03/18 06:45:20;;;;;;;1.90;1.80;;;;;;;;;;5096489;28;20031;-65
2024/03/18 06:47:46;;;;;;;9.65;2.08;;;;;;;;;;5098100;28;20086;-66
2024/03/18 06:50:13;;;;;;;3.00;2.05;;;;;;;;;;5105289;28;20530;-65
2024/03/18 06:52:40;;;;;;;4.28;2.05;;;;;;;;;;5092685;28;20611;-65
2024/03/18 06:55:06;;;;;;;3.00;1.77;;;;;;;;;;5089156;28;20032;-65
2024/03/18 06:57:32;;;;;;;6.25;2.00;;;;;;;;;;5090490;28;20027;-65
2024/03/18 07:00:04;;;;;;;1.58;1.50;;;;;;;;;;5078085;28;20020;-64
2024/03/18 07:02:31;;;;;;;5.38;1.80;;;;;;;;;;5094803;28;20032;-65
2024/03/18 07:04:58;;;;;;;3.65;1.85;;;;;;;;;;5089200;28;20508;-65
2024/03/18 07:07:24;;;;;;;2.28;2.00;;;;;;;;;;5101579;28;20024;-65
2024/03/18 07:09:50;;;;;;;3.97;2.88;;;;;;;;;;5085642;28;20081;-65
2024/03/18 07:12:16;;;;;;;1.42;1.33;;;;;;;;;;5102149;28;20047;-65
2024/03/18 07:14:43;;;;;;;2.60;2.03;;;;;;;;;;5083981;28;20337;-65
2024/03/18 07:17:09;;;;;;;2.60;1.67;;;;;;;;;;5082752;28;20053;-65
2024/03/18 07:19:36;;;;;;;7.05;1.70;;;;;;;;;;5106789;28;20026;-65
2024/03/18 07:22:02;;;;;;;2.35;1.80;;;;;;;;;;5077687;28;20035;-66
2024/03/18 07:24:29;;;;;;;2.67;1.85;;;;;;;;;;5076706;28;20488;-66
2024/03/18 07:26:55;;;;;;;4.30;2.25;;;;;;;;;;5083342;28;20031;-66
2024/03/18 07:29:21;;;;;;;1.83;1.63;;;;;;;;;;5099468;27;20035;-69
2024/03/18 07:31:49;;;;;;;1.40;1.40;;;;;;;;;;5099015;28;20024;-66
2024/03/18 07:34:15;;;;;;;3.97;2.00;;;;;;;;;;5090159;27;20071;-66
2024/03/18 07:36:41;;;;;;;2.42;1.75;;;;;;;;;;5094772;28;20027;-66
2024/03/18 07:39:07;;;;;;;5.40;2.08;;;;;;;;;;5102372;28;20529;-66
2024/03/18 07:41:35;;;;;;;2.75;1.58;;;;;;;;;;5085617;28;20141;-65
2024/03/18 07:44:01;;;;;;;10.07;2.00;;;;;;;;;;5095275;27;20030;-65
2024/03/18 07:46:28;;;;;;;2.58;1.52;;;;;;;;;;5088061;28;20020;-65
2024/03/18 07:48:54;;;;;;;2.25;1.60;;;;;;;;;;5096781;28;20035;-66
2024/03/18 07:51:20;;;;;;;6.75;1.67;;;;;;;;;;5099399;27;20054;-66
2024/03/18 07:53:46;;;;;;;6.47;1.95;;;;;;;;;;5079194;28;20366;-66
2024/03/18 07:56:13;;;;;;;7.18;1.80;;;;;;;;;;5081727;28;20404;-66
2024/03/18 07:58:39;;;;;;;1.88;1.45;;;;;;;;;;5102734;27;20024;-66
2024/03/18 08:01:05;;;;;;;5.15;2.05;;;;;;;;;;5107804;28;20031;-66
2024/03/18 08:03:32;;;;;;;6.03;2.28;;;;;;;;;;5107427;28;20020;-66
2024/03/18 08:05:58;;;;;;;1.40;1.35;;;;;;;;;;5110085;28;20028;-65
2024/03/18 08:08:24;;;;;;;3.25;2.13;;;;;;;;;;5107429;28;20053;-65
2024/03/18 08:10:50;;;;;;;10.43;2.17;;;;;;;;;;5108157;27;20028;-65
2024/03/18 08:13:17;;;;;;;3.15;1.73;;;;;;;;;;5103936;28;20027;-65
2024/03/18 08:15:46;;;;;;;1.70;1.60;;;;;;;;;;5087411;28;20065;-65
2024/03/18 08:18:12;;;;;;;2.40;1.55;;;;;;;;;;5090247;28;20066;-65
2024/03/18 08:20:38;;;;;;;2.20;1.90;;;;;;;;;;5086970;28;20493;-65
2024/03/18 08:23:06;;;;;;;1.52;1.42;;;;;;;;;;5104251;27;20031;-65
2024/03/18 08:25:33;;;;;;;2.70;1.60;;;;;;;;;;5088175;28;20055;-65
2024/03/18 08:27:59;;;;;;;7.03;1.70;;;;;;;;;;5097343;28;20035;-66
2024/03/18 08:30:26;;;;;;;3.10;1.45;;;;;;;;;;5096340;28;20086;-67
2024/03/18 08:32:52;;;;;;;4.97;1.50;;;;;;;;;;5094809;28;20115;-66
2024/03/18 08:35:18;;;;;;;6.38;2.08;;;;;;;;;;5099895;27;20251;-66
2024/03/18 08:37:45;;;;;;;4.05;1.95;;;;;;;;;;5104016;28;20036;-66
2024/03/18 08:40:13;;;;;;;1.25;1.15;;;;;;;;;;5095056;28;20023;-66
2024/03/18 08:42:39;;;;;;;3.55;2.28;;;;;;;;;;5095661;28;20081;-66
2024/03/18 08:45:06;;;;;;;6.88;2.67;;;;;;;;;;5097163;28;20028;-65
2024/03/18 08:47:32;;;;;;;5.82;1.60;;;;;;;;;;5073970;27;20024;-66
2024/03/18 08:49:58;;;;;;;5.55;1.85;;;;;;;;;;5085641;28;20057;-66
2024/03/18 08:52:25;;;;;;;1.20;1.20;;;;;;;;;;5073481;27;20045;-66
2024/03/18 08:54:51;;;;;;;2.20;1.40;;;;;;;;;;5101012;27;20028;-66
2024/03/18 08:57:17;;;;;;;6.85;1.65;;;;;;;;;;5092732;28;20453;-66
2024/03/18 08:59:43;;;;;;;6.78;2.10;;;;;;;;;;5095573;27;20528;-66
2024/03/18 09:02:10;;;;;;;3.70;1.52;;;;;;;;;;5098115;28;20430;-65
2024/03/18 09:04:36;;;;;;;2.88;1.40;;;;;;;;;;5095233;28;20464;-65
2024/03/18 09:07:02;;;;;;;5.43;1.65;;;;;;;;;;5100637;28;20300;-65
2024/03/18 09:09:29;;;;;;;3.63;2.22;;;;;;;;;;5088351;27;20028;-66
2024/03/18 09:11:55;;;;;;;2.47;1.60;;;;;;;;;;5099291;28;20480;-65
2024/03/18 09:14:22;;;;;;;9.00;2.47;;;;;;;;;;5095062;28;20016;-66
2024/03/18 09:16:48;;;;;;;7.38;1.55;;;;;;;;;;5085111;28;20040;-65
2024/03/18 09:19:14;;;;;;;2.25;1.50;;;;;;;;;;5103631;28;20508;-65
2024/03/18 09:21:40;;;;;;;6.55;1.98;;;;;;;;;;5100577;28;20026;-65
2024/03/18 09:24:07;;;;;;;4.10;1.65;;;;;;;;;;5079833;28;20032;-66
2024/03/18 09:26:33;;;;;;;2.28;1.45;;;;;;;;;;5099874;27;20477;-66
2024/03/18 09:28:59;;;;;;;3.58;1.77;;;;;;;;;;5087243;28;20027;-65
2024/03/18 09:31:25;;;;;;;3.80;2.20;;;;;;;;;;5104121;27;20499;-66
2024/03/18 09:33:51;;;;;;;11.05;1.70;;;;;;;;;;5095215;27;20019;-65
2024/03/18 09:36:18;;;;;;;5.75;1.98;;;;;;;;;;5079283;28;20483;-66
2024/03/18 09:38:44;;;;;;;4.20;1.80;;;;;;;;;;5097230;27;20056;-66
2024/03/18 09:41:15;;;;;;;4.05;1.73;;;;;;;;;;5093155;28;20032;-66
2024/03/18 09:43:41;;;;;;;7.70;1.55;;;;;;;;;;5077571;28;20027;-65
2024/03/18 09:46:07;;;;;;;2.85;1.65;;;;;;;;;;5090763;28;20131;-65
2024/03/18 09:48:33;;;;;;;1.65;1.60;;;;;;;;;;5075850;28;20135;-65
2024/03/18 09:51:00;;;;;;;6.93;1.95;;;;;;;;;;5085381;28;20652;-65
2024/03/18 09:53:29;;;;;;;8.85;2.67;;;;;;;;;;5074180;28;20051;-68
2024/03/18 09:55:55;;;;;;;4.70;1.95;;;;;;;;;;5069142;28;20087;-65
2024/03/18 09:58:22;;;;;;;6.32;2.45;;;;;;;;;;5083791;28;20422;-66
2024/03/18 10:00:48;;;;;;;1.95;1.60;;;;;;;;;;5086848;28;20036;-65
2024/03/18 10:03:18;;;;;;;2.30;1.55;;;;;;;;;;5087078;28;20050;-66
2024/03/18 10:05:45;;;;;;;7.68;2.05;;;;;;;;;;5089763;28;20027;-66
2024/03/18 10:08:15;;;;;;;7.47;1.75;;;;;;;;;;5081757;28;20469;-66
2024/03/18 10:10:41;;;;;;;3.13;1.63;;;;;;;;;;5098068;28;20039;-69
2024/03/18 10:13:08;;;;;;;6.93;1.77;;;;;;;;;;5092206;28;20032;-66
2024/03/18 10:15:34;;;;;;;2.58;1.70;;;;;;;;;;5091368;28;20094;-66
2024/03/18 10:18:01;;;;;;;3.40;2.03;;;;;;;;;;5098518;28;20024;-66
2024/03/18 10:20:27;;;;;;;3.15;1.65;;;;;;;;;;5083649;28;20043;-66
2024/03/18 10:22:53;;;;;;;2.60;1.80;;;;;;;;;;5097056;27;20027;-65
2024/03/18 10:25:25;;;;;;;4.38;1.80;;;;;;;;;;5068336;28;20028;-66
2024/03/18 10:27:54;;;;;;;3.50;1.40;;;;;;;;;;5096942;28;20121;-65
2024/03/18 10:30:21;;;;;;;5.50;2.13;;;;;;;;;;5100093;28;20023;-65
2024/03/18 10:32:48;;;;;;;4.05;1.98;;;;;;;;;;5083088;28;20020;-65
2024/03/18 10:35:19;;;;;;;6.15;2.38;;;;;;;;;;5088477;28;20024;-65
2024/03/18 10:37:56;;;;;;;3.20;2.00;;;;;;;;;;5073582;28;20711;-65
2024/03/18 10:40:38;;;;;;;5.80;2.05;;;;;;;;;;5078744;28;20424;-66
2024/03/18 10:43:08;;;;;;;5.15;2.15;;;;;;;;;;5070163;28;20412;-65
2024/03/18 10:45:36;;;;;;;6.57;1.58;;;;;;;;;;5077704;28;20016;-67
2024/03/18 10:48:04;;;;;;;3.30;1.73;;;;;;;;;;5076606;28;20035;-65
2024/03/18 10:50:30;;;;;;;2.42;2.22;;;;;;;;;;5071116;28;20034;-65
2024/03/18 10:52:56;;;;;;;7.97;1.85;;;;;;;;;;5078235;28;21017;-65
2024/03/18 10:55:23;;;;;;;3.17;1.77;;;;;;;;;;5077115;28;20028;-66
2024/03/18 10:57:53;;;;;;;4.70;1.83;;;;;;;;;;5065300;28;20031;-65
2024/03/18 11:00:19;;;;;;;11.82;2.20;;;;;;;;;;5079669;28;20381;-65
2024/03/18 11:03:04;;;;;;;4.80;1.90;;;;;;;;;;5074079;28;20214;-65
2024/03/18 11:05:35;;;;;;;4.78;1.73;;;;;;;;;;5075264;28;20024;-65
2024/03/18 11:08:09;;;;;;;5.25;1.38;;;;;;;;;;5076108;28;20069;-67
2024/03/18 11:10:38;;;;;;;5.75;1.50;;;;;;;;;;5077644;28;20024;-65
2024/03/18 11:13:14;;;;;;;7.35;1.70;;;;;;;;;;5069315;28;20224;-66
2024/03/18 11:15:47;;;;;;;4.40;1.90;;;;;;;;;;5064010;28;20039;-65
2024/03/18 11:18:26;;;;;;;12.57;1.85;;;;;;;;;;5082113;28;20588;-65
2024/03/18 11:20:58;;;;;;;2.40;1.63;;;;;;;;;;5075792;28;20032;-70
2024/03/18 11:23:25;;;;;;;5.97;1.98;;;;;;;;;;5077350;28;20069;-65
2024/03/18 11:25:55;;;;;;;1.70;1.58;;;;;;;;;;5078966;28;20123;-66
2024/03/18 11:28:32;;;;;;;7.22;1.88;;;;;;;;;;5070524;28;20048;-65
2024/03/18 11:30:59;;;;;;;8.70;2.00;;;;;;;;;;5065576;28;20034;-65
2024/03/18 11:33:27;;;;;;;6.25;2.17;;;;;;;;;;5080276;28;20066;-65
2024/03/18 11:35:53;;;;;;;4.50;1.83;;;;;;;;;;5072734;28;20847;-65
2024/03/18 11:38:20;;;;;;;5.93;2.08;;;;;;;;;;5102128;28;20043;-65
2024/03/18 11:40:50;;;;;;;13.48;2.35;;;;;;;;;;5097777;28;20035;-65
2024/03/18 11:43:22;;;;;;;2.92;1.73;;;;;;;;;;5094390;28;20093;-65
2024/03/18 11:45:49;;;;;;;5.40;1.95;;;;;;;;;;5099716;28;20440;-66
2024/03/18 11:48:16;;;;;;;4.88;2.28;;;;;;;;;;5085441;28;20541;-65
2024/03/18 11:50:44;;;;;;;4.90;2.22;;;;;;;;;;5075698;28;20034;-64
2024/03/18 11:53:11;;;;;;;5.80;2.35;;;;;;;;;;5108753;27;20011;-66
2024/03/18 11:55:38;;;;;;;6.07;1.88;;;;;;;;;;5105193;27;20019;-64
2024/03/18 11:58:06;;;;;;;7.88;2.28;;;;;;;;;;5112052;27;20504;-72
2024/03/18 12:00:33;;;;;;;4.35;1.70;;;;;;;;;;5107600;28;20047;-73
2024/03/18 12:03:03;;;;;;;2.17;1.98;;;;;;;;;;5105739;28;20057;-73
2024/03/18 12:05:38;;;;;;;7.03;1.65;;;;;;;;;;5080800;28;20081;-70
2024/03/18 12:08:08;;;;;;;2.08;1.50;;;;;;;;;;5083335;28;20019;-71
2024/03/18 12:10:35;;;;;;;3.50;1.75;;;;;;;;;;5087226;27;20050;-79
2024/03/18 12:13:02;;;;;;;10.15;2.40;;;;;;;;;;5112996;28;20019;-79
2024/03/18 12:15:28;;;;;;;5.25;1.70;;;;;;;;;;5093322;28;20031;-78
2024/03/18 12:17:54;;;;;;;8.60;1.92;;;;;;;;;;5092936;28;20016;-79
2024/03/18 12:20:24;;;;;;;7.35;2.05;;;;;;;;;;5113847;28;20024;-78
2024/03/18 12:23:01;;;;;;;3.30;1.70;;;;;;;;;;5087790;28;20369;-76
2024/03/18 12:28:32;;;;;;;4.03;1.70;;;;;;;;;;5111745;28;20046;-77
2024/03/18 12:31:02;;;;;;;5.88;2.13;;;;;;;;;;5111501;27;20024;-76
2024/03/18 12:33:32;;;;;;;7.05;2.13;;;;;;;;;;5109911;28;20064;-77
2024/03/18 12:35:58;;;;;;;8.35;2.83;;;;;;;;;;5112373;27;20055;-75
2024/03/18 12:38:28;;;;;;;1.92;1.52;;;;;;;;;;5106693;28;21010;-76
2024/03/18 12:40:54;;;;;;;2.05;1.90;;;;;;;;;;5110492;28;20023;-77
2024/03/18 12:43:20;;;;;;;3.38;1.50;;;;;;;;;;5104099;28;20503;-77
2024/03/18 12:45:46;;;;;;;4.55;2.05;;;;;;;;;;5089531;28;20027;-76
2024/03/18 12:48:12;;;;;;;2.75;1.70;;;;;;;;;;5105973;28;20650;-73
2024/03/18 12:50:38;;;;;;;7.53;1.92;;;;;;;;;;5099970;28;20587;-74
2024/03/18 12:53:09;;;;;;;7.45;2.22;;;;;;;;;;5104408;28;20031;-72
2024/03/18 12:55:35;;;;;;;6.60;1.88;;;;;;;;;;5092251;28;20103;-71
2024/03/18 12:58:06;;;;;;;3.08;1.88;;;;;;;;;;5110409;28;20020;-72
2024/03/18 13:00:33;;;;;;;4.72;1.63;;;;;;;;;;5093584;28;20055;-76
2024/03/18 13:02:59;;;;;;;4.40;2.20;;;;;;;;;;5101551;27;20107;-73
2024/03/18 13:05:25;;;;;;;7.15;1.80;;;;;;;;;;5110865;28;20028;-71
2024/03/18 13:07:51;;;;;;;10.30;2.25;;;;;;;;;;5086680;28;20095;-73
2024/03/18 13:10:20;;;;;;;4.78;1.63;;;;;;;;;;5091149;28;20029;-72
2024/03/18 13:12:47;;;;;;;5.43;2.08;;;;;;;;;;5088169;28;20027;-74
2024/03/18 13:15:14;;;;;;;5.85;2.20;;;;;;;;;;5090230;28;20039;-74
2024/03/18 13:17:42;;;;;;;3.05;2.00;;;;;;;;;;5109671;28;20075;-75
2024/03/18 13:20:09;;;;;;;5.68;2.90;;;;;;;;;;5108176;28;20031;-74
2024/03/18 13:22:39;;;;;;;7.47;2.30;;;;;;;;;;5114137;28;20024;-75
2024/03/18 13:25:06;;;;;;;1.73;1.63;;;;;;;;;;5107542;28;20066;-73
2024/03/18 13:27:32;;;;;;;8.57;2.20;;;;;;;;;;5105375;28;20232;-74
2024/03/18 13:30:05;;;;;;;3.03;1.83;;;;;;;;;;5105342;28;20054;-76
2024/03/18 13:32:33;;;;;;;3.03;2.40;;;;;;;;;;5094138;28;20032;-75
2024/03/18 13:35:08;;;;;;;3.67;1.73;;;;;;;;;;5090580;27;20023;-72
2024/03/18 13:37:36;;;;;;;2.15;2.05;;;;;;;;;;5094818;28;20059;-73
2024/03/18 13:40:04;;;;;;;5.80;1.95;;;;;;;;;;5108161;27;20031;-75
2024/03/18 13:42:31;;;;;;;4.63;2.13;;;;;;;;;;5108468;28;20095;-73
2024/03/18 13:44:58;;;;;;;8.52;3.03;;;;;;;;;;5090137;27;20282;-72
2024/03/18 13:47:24;;;;;;;3.15;1.60;;;;;;;;;;5108833;27;20051;-75
2024/03/18 13:49:51;;;;;;;1.88;1.23;;;;;;;;;;5109261;27;20031;-75
2024/03/18 13:52:18;;;;;;;1.73;1.40;;;;;;;;;;5101252;28;20027;-74
2024/03/18 13:54:47;;;;;;;3.05;1.67;;;;;;;;;;5090042;27;20049;-75
2024/03/18 13:57:14;;;;;;;2.03;1.60;;;;;;;;;;5102294;28;20035;-73
2024/03/18 13:59:43;;;;;;;5.78;1.80;;;;;;;;;;5101337;28;20051;-73
2024/03/18 14:02:16;;;;;;;4.40;1.85;;;;;;;;;;5102099;28;20023;-72
2024/03/18 14:04:43;;;;;;;8.13;2.00;;;;;;;;;;5100568;28;20027;-73
2024/03/18 14:07:09;;;;;;;6.93;1.85;;;;;;;;;;5099418;27;20453;-74
2024/03/18 14:09:36;;;;;;;3.95;2.30;;;;;;;;;;5109153;27;20023;-72
2024/03/18 14:12:03;;;;;;;2.42;1.83;;;;;;;;;;5104543;28;20925;-70
2024/03/18 14:14:33;;;;;;;7.93;1.80;;;;;;;;;;5092438;28;20090;-73
2024/03/18 14:17:03;;;;;;;7.60;1.60;;;;;;;;;;5083227;27;20055;-73
2024/03/18 14:19:30;;;;;;;11.57;2.30;;;;;;;;;;5105545;28;20074;-73
2024/03/18 14:21:57;;;;;;;2.75;1.73;;;;;;;;;;5106566;28;20035;-73
2024/03/18 14:24:23;;;;;;;5.18;1.95;;;;;;;;;;5092543;28;20058;-73
2024/03/18 14:26:50;;;;;;;3.33;2.05;;;;;;;;;;5108430;28;20040;-72
2024/03/18 14:29:16;;;;;;;4.63;1.80;;;;;;;;;;5111946;28;20023;-72
2024/03/18 14:31:42;;;;;;;4.43;2.42;;;;;;;;;;5112972;28;20110;-73
2024/03/18 14:34:09;;;;;;;2.78;1.90;;;;;;;;;;5110245;28;20035;-72
2024/03/18 14:36:38;;;;;;;5.45;2.15;;;;;;;;;;5108907;28;20537;-72
2024/03/18 14:39:07;;;;;;;8.30;2.88;;;;;;;;;;5100049;28;20055;-72
2024/03/18 14:41:38;;;;;;;3.55;1.90;;;;;;;;;;5075302;28;20032;-72
2024/03/18 14:44:04;;;;;;;7.68;1.92;;;;;;;;;;5078636;28;20062;-72
2024/03/18 14:46:31;;;;;;;5.05;2.25;;;;;;;;;;5092865;28;20500;-72